Carbonado, Washington
Current Conditions -  °F | °C
As of 6:44 PM on Saturday 25 Oct 2014 (Local Time) from KTCM Reporting Station
Light Rain Light Rain  
Wind Chill: 57°   Ceiling: 3300
Heat Index: 57°   Visibility: 8mi
Dew Point: 55°   Wind: 18mph
Humidity: 94%   Direction: 220°SW
Pressure: 29.34"   Gusts: 29mph
Location:  47.08°N, 122.05°W
Report Text: KTCM 260144Z AUTO 22016G25KT 8SM -RA FEW003 BKN033 OVC041 14/13 A2934 RMK AO2 PRESRR
Loading
Personal Weather Stations






























Interactive Weather Map
Tropical Storm Tracking
New forecast layout! Learn more

10-Day Weather Forecast

Advertisements
Track Severe Weather on mobile